Time;durP1;ratioP1;P1;durP2;ratioP2;P2;SDS_P1;SDS_P2;PMS_P1;PMS_P2;Temp;Humidity;BMP_temperature;BMP_pressure;BME280_temperature;BME280_humidity;BME280_pressure;Samples;Min_cycle;Max_cycle;Signal;HPM_P1;HPM_P2
2023/05/21 00:00:36;;;;;;;6.82;4.30;;;;;;;;;;5055960;28;20048;-76
2023/05/21 00:03:02;;;;;;;6.57;4.32;;;;;;;;;;5055066;28;20071;-76
2023/05/21 00:05:28;;;;;;;6.00;3.50;;;;;;;;;;5071692;28;21392;-75
2023/05/21 00:07:54;;;;;;;9.45;4.40;;;;;;;;;;5054537;28;20153;-74
2023/05/21 00:10:20;;;;;;;5.20;3.97;;;;;;;;;;5057846;28;20055;-75
2023/05/21 00:12:47;;;;;;;8.02;4.25;;;;;;;;;;5056339;28;20033;-75
2023/05/21 00:15:13;;;;;;;5.50;3.88;;;;;;;;;;5057196;28;20174;-75
2023/05/21 00:17:39;;;;;;;8.52;4.38;;;;;;;;;;5059145;28;21051;-75
2023/05/21 00:20:06;;;;;;;5.20;4.55;;;;;;;;;;5055816;28;20661;-75
2023/05/21 00:22:32;;;;;;;7.65;4.32;;;;;;;;;;5037431;28;20174;-75
2023/05/21 00:24:58;;;;;;;6.35;4.35;;;;;;;;;;5035011;28;21778;-75
2023/05/21 00:27:25;;;;;;;7.35;4.13;;;;;;;;;;5055473;28;20472;-75
2023/05/21 00:29:51;;;;;;;7.57;4.43;;;;;;;;;;5036520;28;20586;-76
2023/05/21 00:32:17;;;;;;;6.63;4.38;;;;;;;;;;5055656;28;20048;-76
2023/05/21 00:34:43;;;;;;;6.18;4.53;;;;;;;;;;5040345;28;21461;-75
2023/05/21 00:37:09;;;;;;;6.93;5.03;;;;;;;;;;5052943;28;20619;-75
2023/05/21 00:39:35;;;;;;;8.95;4.53;;;;;;;;;;5054461;28;20079;-76
2023/05/21 00:42:03;;;;;;;11.13;4.68;;;;;;;;;;5042114;28;20549;-75
2023/05/21 00:44:33;;;;;;;6.00;4.93;;;;;;;;;;5054119;28;20052;-76
2023/05/21 00:47:01;;;;;;;8.40;4.90;;;;;;;;;;5052471;28;20040;-75
2023/05/21 00:49:27;;;;;;;7.70;5.20;;;;;;;;;;5055119;28;20048;-75
2023/05/21 00:51:54;;;;;;;8.18;4.90;;;;;;;;;;5055687;28;20047;-76
2023/05/21 00:54:20;;;;;;;7.43;4.97;;;;;;;;;;5059668;28;20049;-76
2023/05/21 00:56:47;;;;;;;6.57;4.95;;;;;;;;;;5054024;28;20044;-76
2023/05/21 00:59:14;;;;;;;10.48;5.35;;;;;;;;;;5055312;28;20083;-75
2023/05/21 01:01:41;;;;;;;16.63;6.55;;;;;;;;;;5071349;28;20040;-75
2023/05/21 01:04:07;;;;;;;6.68;5.18;;;;;;;;;;5052910;28;20044;-76
2023/05/21 01:06:33;;;;;;;8.48;5.50;;;;;;;;;;5037702;28;20045;-76
2023/05/21 01:09:01;;;;;;;7.82;5.55;;;;;;;;;;5054723;28;20507;-76
2023/05/21 01:11:47;;;;;;;8.25;5.32;;;;;;;;;;5070121;28;20047;-76
2023/05/21 01:14:14;;;;;;;7.95;5.00;;;;;;;;;;5058933;28;20127;-76
2023/05/21 01:16:41;;;;;;;9.63;5.03;;;;;;;;;;5054444;28;20500;-75
2023/05/21 01:19:09;;;;;;;5.55;4.93;;;;;;;;;;5056657;28;20040;-75
2023/05/21 01:21:37;;;;;;;7.22;5.10;;;;;;;;;;5055221;28;20047;-75
2023/05/21 01:24:04;;;;;;;6.60;4.90;;;;;;;;;;5053016;28;20043;-75
2023/05/21 01:26:32;;;;;;;8.52;5.18;;;;;;;;;;5055562;28;20061;-77
2023/05/21 01:28:58;;;;;;;6.80;4.95;;;;;;;;;;5052124;28;20661;-74
2023/05/21 01:31:31;;;;;;;6.43;4.90;;;;;;;;;;5069793;28;20040;-74
2023/05/21 01:33:59;;;;;;;7.85;4.97;;;;;;;;;;5055531;28;20032;-75
2023/05/21 01:36:29;;;;;;;14.80;5.20;;;;;;;;;;5057364;28;22061;-76
2023/05/21 01:39:15;;;;;;;9.38;4.88;;;;;;;;;;5058678;28;20426;-76
2023/05/21 01:41:43;;;;;;;11.52;6.07;;;;;;;;;;5058274;28;20040;-75
2023/05/21 01:44:10;;;;;;;7.55;5.60;;;;;;;;;;5035565;28;20064;-77
2023/05/21 01:46:37;;;;;;;16.33;5.82;;;;;;;;;;5035715;28;20131;-76
2023/05/21 01:49:05;;;;;;;7.43;5.38;;;;;;;;;;5035716;28;20040;-76
2023/05/21 01:51:31;;;;;;;7.85;5.75;;;;;;;;;;5054133;28;20105;-76
2023/05/21 01:53:57;;;;;;;11.23;5.72;;;;;;;;;;5053885;28;20649;-75
2023/05/21 01:56:24;;;;;;;11.25;5.68;;;;;;;;;;5055175;28;20050;-75
2023/05/21 01:58:51;;;;;;;13.10;6.50;;;;;;;;;;5024567;28;20044;-76
2023/05/21 02:01:17;;;;;;;11.45;5.78;;;;;;;;;;5055142;28;20048;-76
2023/05/21 02:03:43;;;;;;;8.43;5.95;;;;;;;;;;5053678;28;20048;-75
2023/05/21 02:06:10;;;;;;;12.00;6.40;;;;;;;;;;5051339;28;20043;-75
2023/05/21 02:08:37;;;;;;;8.13;5.55;;;;;;;;;;5054027;28;20495;-75
2023/05/21 02:11:03;;;;;;;9.50;5.93;;;;;;;;;;5053523;28;20060;-75
2023/05/21 02:13:29;;;;;;;9.48;6.05;;;;;;;;;;5055103;28;21326;-75
2023/05/21 02:15:55;;;;;;;11.13;5.65;;;;;;;;;;5054668;28;20076;-75
2023/05/21 02:18:21;;;;;;;9.82;5.47;;;;;;;;;;5053337;28;20052;-75
2023/05/21 02:20:48;;;;;;;8.55;5.38;;;;;;;;;;5053701;28;20051;-75
2023/05/21 02:23:14;;;;;;;14.98;5.70;;;;;;;;;;5020593;28;20075;-76
2023/05/21 02:25:40;;;;;;;11.27;5.30;;;;;;;;;;5052060;28;20067;-76
2023/05/21 02:28:06;;;;;;;9.98;5.03;;;;;;;;;;5039261;28;20051;-75
2023/05/21 02:30:32;;;;;;;13.02;5.65;;;;;;;;;;5037764;28;20059;-76
2023/05/21 02:32:59;;;;;;;7.70;5.13;;;;;;;;;;5038299;28;20048;-76
2023/05/21 02:35:26;;;;;;;9.20;5.93;;;;;;;;;;5027383;28;20556;-75
2023/05/21 02:37:52;;;;;;;13.07;5.28;;;;;;;;;;5057206;28;20178;-75
2023/05/21 02:40:18;;;;;;;17.27;6.10;;;;;;;;;;5038362;28;20048;-75
2023/05/21 02:42:44;;;;;;;15.70;5.85;;;;;;;;;;5041845;28;20187;-76
2023/05/21 02:45:11;;;;;;;12.23;5.82;;;;;;;;;;5055517;28;20139;-76
2023/05/21 02:47:37;;;;;;;8.82;5.50;;;;;;;;;;5039584;28;20650;-75
2023/05/21 02:50:05;;;;;;;9.85;5.28;;;;;;;;;;5047804;28;20055;-75
2023/05/21 02:52:31;;;;;;;8.15;4.63;;;;;;;;;;5057765;28;20076;-75
2023/05/21 02:54:57;;;;;;;10.65;5.30;;;;;;;;;;5073960;28;20361;-75
2023/05/21 02:57:23;;;;;;;9.52;5.47;;;;;;;;;;5055945;28;20074;-76
2023/05/21 02:59:50;;;;;;;14.18;5.65;;;;;;;;;;5070366;28;20048;-76
2023/05/21 03:02:16;;;;;;;11.00;5.38;;;;;;;;;;5059267;28;20093;-76
2023/05/21 03:04:45;;;;;;;11.32;5.55;;;;;;;;;;5074591;28;20043;-75
2023/05/21 03:07:13;;;;;;;13.20;5.82;;;;;;;;;;5059414;28;20614;-76
2023/05/21 03:09:40;;;;;;;11.30;5.03;;;;;;;;;;5039241;28;20044;-76
2023/05/21 03:12:07;;;;;;;11.88;5.70;;;;;;;;;;5055584;28;20478;-75
2023/05/21 03:14:34;;;;;;;15.55;5.95;;;;;;;;;;5056884;28;20559;-76
2023/05/21 03:17:02;;;;;;;12.55;5.00;;;;;;;;;;5045455;28;20178;-75
2023/05/21 03:19:30;;;;;;;11.75;5.03;;;;;;;;;;5060288;28;20063;-76
2023/05/21 03:21:56;;;;;;;8.10;5.07;;;;;;;;;;5061347;28;20040;-76
2023/05/21 03:24:22;;;;;;;11.20;5.07;;;;;;;;;;5064348;28;20036;-76
2023/05/21 03:26:49;;;;;;;9.48;4.90;;;;;;;;;;5057860;28;20719;-76
2023/05/21 03:29:15;;;;;;;9.60;4.85;;;;;;;;;;5042996;28;20055;-76
2023/05/21 03:31:41;;;;;;;10.75;5.30;;;;;;;;;;5049044;28;20037;-76
2023/05/21 03:34:07;;;;;;;15.15;5.93;;;;;;;;;;5058769;28;20044;-76
2023/05/21 03:36:33;;;;;;;10.32;4.93;;;;;;;;;;5043998;28;20055;-76
2023/05/21 03:39:00;;;;;;;12.38;5.30;;;;;;;;;;5044492;28;20136;-76
2023/05/21 03:41:26;;;;;;;11.65;5.57;;;;;;;;;;5044485;28;20048;-76
2023/05/21 03:43:52;;;;;;;13.63;5.38;;;;;;;;;;5059993;28;20097;-76
2023/05/21 03:46:18;;;;;;;11.60;5.70;;;;;;;;;;5059368;28;20079;-76
2023/05/21 03:48:44;;;;;;;11.40;5.22;;;;;;;;;;5063416;28;20125;-76
2023/05/21 03:51:12;;;;;;;10.32;5.03;;;;;;;;;;5060274;28;20056;-75
2023/05/21 03:53:38;;;;;;;10.23;5.05;;;;;;;;;;5050398;28;20052;-75
2023/05/21 03:56:04;;;;;;;8.85;5.07;;;;;;;;;;5062239;28;20044;-75
2023/05/21 03:58:30;;;;;;;11.40;5.28;;;;;;;;;;5058912;28;20105;-76
2023/05/21 04:00:56;;;;;;;12.13;4.95;;;;;;;;;;5060403;28;20171;-76
2023/05/21 04:03:22;;;;;;;12.15;5.07;;;;;;;;;;5026144;28;20044;-76
2023/05/21 04:05:48;;;;;;;9.40;5.15;;;;;;;;;;5059211;28;21286;-75
2023/05/21 04:08:15;;;;;;;12.38;4.88;;;;;;;;;;5074890;28;20070;-77
2023/05/21 04:10:41;;;;;;;9.73;4.88;;;;;;;;;;5061356;28;20044;-76
2023/05/21 04:13:07;;;;;;;10.40;4.75;;;;;;;;;;5060133;28;20178;-76
2023/05/21 04:15:34;;;;;;;10.85;4.43;;;;;;;;;;5063279;28;20118;-76
2023/05/21 04:18:00;;;;;;;8.13;4.18;;;;;;;;;;5059597;28;20041;-76
2023/05/21 04:20:26;;;;;;;12.13;4.90;;;;;;;;;;5061166;28;20056;-75
2023/05/21 04:22:52;;;;;;;9.70;4.40;;;;;;;;;;5039877;28;21751;-74
2023/05/21 04:25:20;;;;;;;9.50;4.90;;;;;;;;;;5059738;28;20501;-75
2023/05/21 04:27:47;;;;;;;10.63;4.57;;;;;;;;;;5074106;28;20431;-76
2023/05/21 04:30:13;;;;;;;8.95;4.65;;;;;;;;;;5058626;28;20127;-76
2023/05/21 04:32:39;;;;;;;13.65;4.93;;;;;;;;;;5058262;28;20567;-76
2023/05/21 04:35:05;;;;;;;8.18;4.72;;;;;;;;;;5056955;28;20043;-75
2023/05/21 04:37:33;;;;;;;9.77;4.43;;;;;;;;;;5041731;28;20106;-76
2023/05/21 04:40:03;;;;;;;11.30;4.65;;;;;;;;;;5040203;28;20071;-75
2023/05/21 04:42:29;;;;;;;11.15;4.78;;;;;;;;;;5039543;28;20063;-76
2023/05/21 04:44:58;;;;;;;9.75;4.43;;;;;;;;;;5056511;28;20136;-75
2023/05/21 04:47:24;;;;;;;13.32;4.60;;;;;;;;;;5058603;28;20047;-76
2023/05/21 04:49:50;;;;;;;10.88;4.65;;;;;;;;;;5045055;28;20534;-76
2023/05/21 04:52:26;;;;;;;10.73;5.15;;;;;;;;;;5058782;28;20542;-77
2023/05/21 04:58:05;;;;;;;13.25;4.90;;;;;;;;;;5000691;28;20113;-77
2023/05/21 05:00:50;;;;;;;12.13;4.53;;;;;;;;;;4987303;28;20053;-77
2023/05/21 05:03:16;;;;;;;;;;;;;;;;;;5021271;28;20071;-84
2023/05/21 05:05:42;;;;;;;10.48;4.75;;;;;;;;;;5007331;28;20019;-83
2023/05/21 05:08:08;;;;;;;13.13;4.57;;;;;;;;;;5008370;28;20627;-84
2023/05/21 05:10:35;;;;;;;7.20;4.20;;;;;;;;;;5025418;28;20559;-82
2023/05/21 05:13:01;;;;;;;10.88;4.93;;;;;;;;;;5006461;28;20614;-82
2023/05/21 05:15:27;;;;;;;9.55;4.68;;;;;;;;;;5023293;28;20207;-84
2023/05/21 05:17:53;;;;;;;6.25;4.60;;;;;;;;;;5016208;28;20095;-83
2023/05/21 05:20:19;;;;;;;11.50;5.55;;;;;;;;;;4994200;28;20046;-85
2023/05/21 05:22:45;;;;;;;10.55;4.88;;;;;;;;;;5011793;28;20148;-84
2023/05/21 05:25:11;;;;;;;20.17;5.32;;;;;;;;;;4995312;28;20041;-83
2023/05/21 05:27:37;;;;;;;7.97;4.60;;;;;;;;;;5018934;28;20134;-83
2023/05/21 05:30:04;;;;;;;8.95;5.00;;;;;;;;;;5020859;28;20053;-82
2023/05/21 05:32:30;;;;;;;11.68;4.90;;;;;;;;;;5010378;28;20052;-83
2023/05/21 05:34:56;;;;;;;10.18;4.60;;;;;;;;;;5024126;28;21118;-83
2023/05/21 05:37:22;;;;;;;10.95;4.30;;;;;;;;;;5068359;28;20047;-86
2023/05/21 05:39:48;;;;;;;9.80;4.53;;;;;;;;;;5070048;28;22277;-82
2023/05/21 05:42:14;;;;;;;14.93;5.38;;;;;;;;;;5069336;28;20104;-84
2023/05/21 05:44:40;;;;;;;9.20;4.78;;;;;;;;;;5067512;28;20138;-81
2023/05/21 05:47:09;;;;;;;9.63;4.55;;;;;;;;;;5053567;28;20418;-82
2023/05/21 05:49:35;;;;;;;11.45;4.47;;;;;;;;;;5067349;28;20063;-82
2023/05/21 05:52:02;;;;;;;15.10;4.95;;;;;;;;;;5086292;28;20052;-82
2023/05/21 05:54:28;;;;;;;11.85;4.85;;;;;;;;;;5036693;28;20062;-84
2023/05/21 05:56:54;;;;;;;13.00;4.28;;;;;;;;;;5071310;28;20578;-83
2023/05/21 05:59:20;;;;;;;7.07;4.43;;;;;;;;;;5074434;28;20075;-84
2023/05/21 06:01:48;;;;;;;10.70;4.78;;;;;;;;;;5076459;28;20067;-84
2023/05/21 06:04:14;;;;;;;9.75;4.45;;;;;;;;;;5074208;28;20066;-84
2023/05/21 06:06:40;;;;;;;10.98;4.50;;;;;;;;;;5072500;28;20055;-82
2023/05/21 06:09:07;;;;;;;10.60;4.07;;;;;;;;;;5090931;28;20032;-83
2023/05/21 06:11:33;;;;;;;9.95;3.97;;;;;;;;;;5096130;28;20032;-84
2023/05/21 06:14:01;;;;;;;8.90;4.60;;;;;;;;;;5090746;28;20036;-83
2023/05/21 06:16:31;;;;;;;10.13;4.38;;;;;;;;;;5079487;28;20044;-83
2023/05/21 06:18:57;;;;;;;12.82;4.60;;;;;;;;;;5081376;28;20056;-85
2023/05/21 06:21:23;;;;;;;7.68;3.80;;;;;;;;;;5076546;28;20044;-84
2023/05/21 06:23:49;;;;;;;16.45;4.50;;;;;;;;;;5073903;28;20039;-84
2023/05/21 06:26:17;;;;;;;16.13;3.83;;;;;;;;;;5072066;28;20044;-83
2023/05/21 06:28:44;;;;;;;16.23;5.05;;;;;;;;;;5073014;28;20080;-82
2023/05/21 06:31:10;;;;;;;12.80;4.35;;;;;;;;;;5054245;28;20054;-84
2023/05/21 06:33:36;;;;;;;12.43;4.97;;;;;;;;;;5069826;28;20408;-86
2023/05/21 06:36:02;;;;;;;9.52;4.45;;;;;;;;;;5054491;28;20040;-83
2023/05/21 06:38:29;;;;;;;17.80;5.22;;;;;;;;;;5072344;28;20049;-84
2023/05/21 06:40:55;;;;;;;7.53;3.83;;;;;;;;;;5056261;28;20157;-85
2023/05/21 06:43:21;;;;;;;8.98;4.53;;;;;;;;;;5073882;28;20067;-84
2023/05/21 06:45:47;;;;;;;13.48;4.55;;;;;;;;;;5074838;28;20088;-84
2023/05/21 06:48:15;;;;;;;16.63;4.43;;;;;;;;;;5074508;28;20476;-83
2023/05/21 06:50:41;;;;;;;13.00;4.00;;;;;;;;;;5074329;28;20120;-85
2023/05/21 06:53:08;;;;;;;10.90;4.82;;;;;;;;;;5092020;28;20032;-84
2023/05/21 06:55:34;;;;;;;9.02;4.47;;;;;;;;;;5055918;28;20052;-83
2023/05/21 06:58:00;;;;;;;12.85;5.00;;;;;;;;;;5092111;28;20051;-84
2023/05/21 07:00:26;;;;;;;7.80;3.88;;;;;;;;;;5058821;28;20060;-83
2023/05/21 07:02:52;;;;;;;11.27;4.15;;;;;;;;;;5076095;28;20078;-83
2023/05/21 07:05:19;;;;;;;7.47;3.78;;;;;;;;;;5074586;28;20052;-84
2023/05/21 07:07:45;;;;;;;10.55;4.30;;;;;;;;;;5075572;28;20037;-84
2023/05/21 07:10:11;;;;;;;8.85;4.05;;;;;;;;;;5060650;28;20040;-83
2023/05/21 07:12:37;;;;;;;11.30;4.47;;;;;;;;;;5076666;28;20122;-85
2023/05/21 07:15:03;;;;;;;9.50;3.88;;;;;;;;;;5074178;28;20048;-84
2023/05/21 07:17:29;;;;;;;9.95;4.65;;;;;;;;;;5072283;28;20048;-83
2023/05/21 07:19:55;;;;;;;13.15;5.13;;;;;;;;;;5077086;28;20040;-84
2023/05/21 07:22:21;;;;;;;10.10;5.00;;;;;;;;;;5091762;28;20036;-84
2023/05/21 07:24:47;;;;;;;9.25;4.50;;;;;;;;;;5072820;28;20244;-85
2023/05/21 07:27:14;;;;;;;10.57;4.40;;;;;;;;;;5071955;28;20052;-85
2023/05/21 07:29:40;;;;;;;10.23;3.58;;;;;;;;;;5054199;28;20049;-84
2023/05/21 07:32:06;;;;;;;8.98;4.03;;;;;;;;;;5070744;28;20157;-83
2023/05/21 07:34:34;;;;;;;8.63;3.72;;;;;;;;;;5076624;28;20252;-84
2023/05/21 07:37:00;;;;;;;9.63;4.18;;;;;;;;;;5060676;28;20107;-84
2023/05/21 07:39:27;;;;;;;10.63;4.03;;;;;;;;;;5080176;28;20101;-85
2023/05/21 07:41:53;;;;;;;8.50;3.88;;;;;;;;;;5068559;28;20092;-86
2023/05/21 07:44:19;;;;;;;8.77;4.28;;;;;;;;;;5067080;28;20098;-84
2023/05/21 07:46:45;;;;;;;11.07;3.83;;;;;;;;;;5057196;28;20075;-83
2023/05/21 07:49:15;;;;;;;8.18;4.00;;;;;;;;;;5077223;28;20040;-84
2023/05/21 07:51:42;;;;;;;10.52;3.97;;;;;;;;;;5074882;28;20044;-84
2023/05/21 07:54:08;;;;;;;9.02;3.90;;;;;;;;;;5075415;28;20510;-84
2023/05/21 07:56:34;;;;;;;7.20;3.97;;;;;;;;;;5095174;28;20039;-85
2023/05/21 07:59:00;;;;;;;10.23;4.25;;;;;;;;;;5077095;28;20043;-83
2023/05/21 08:01:28;;;;;;;9.18;3.45;;;;;;;;;;5055056;28;20089;-86
2023/05/21 08:03:54;;;;;;;7.00;4.13;;;;;;;;;;5076932;28;20043;-87
2023/05/21 08:06:23;;;;;;;12.48;4.60;;;;;;;;;;5076690;28;20054;-85
2023/05/21 08:08:49;;;;;;;8.20;3.70;;;;;;;;;;5078036;28;20134;-87
2023/05/21 08:11:16;;;;;;;10.80;4.10;;;;;;;;;;5078233;28;20036;-86
2023/05/21 08:13:42;;;;;;;6.70;4.22;;;;;;;;;;5079679;28;20095;-87
2023/05/21 08:16:08;;;;;;;9.93;3.75;;;;;;;;;;5080403;28;20048;-85
2023/05/21 08:18:34;;;;;;;12.65;4.00;;;;;;;;;;5077680;28;20048;-87
2023/05/21 08:21:00;;;;;;;8.23;4.03;;;;;;;;;;5079215;28;20243;-86
2023/05/21 08:23:26;;;;;;;8.55;4.20;;;;;;;;;;5091508;28;20051;-86
2023/05/21 08:25:53;;;;;;;7.97;4.00;;;;;;;;;;5057787;28;20041;-85
2023/05/21 08:28:19;;;;;;;9.48;3.78;;;;;;;;;;5056884;28;20184;-85
2023/05/21 08:30:45;;;;;;;9.32;4.72;;;;;;;;;;5076189;28;20067;-85
2023/05/21 08:33:11;;;;;;;9.20;4.43;;;;;;;;;;5073580;28;20524;-87
2023/05/21 08:35:37;;;;;;;10.20;4.32;;;;;;;;;;5089828;28;20047;-86
2023/05/21 08:38:03;;;;;;;6.22;3.63;;;;;;;;;;5072382;28;20048;-86
2023/05/21 08:40:29;;;;;;;9.18;4.10;;;;;;;;;;5071954;28;20089;-86
2023/05/21 08:42:56;;;;;;;8.52;5.15;;;;;;;;;;5071686;28;20070;-85
2023/05/21 08:45:22;;;;;;;7.53;4.03;;;;;;;;;;5078066;28;20080;-86
2023/05/21 08:47:54;;;;;;;11.13;4.40;;;;;;;;;;5090930;28;20345;-87
2023/05/21 08:50:21;;;;;;;12.48;4.35;;;;;;;;;;5072868;28;20132;-87
2023/05/21 08:52:47;;;;;;;8.65;4.15;;;;;;;;;;5072915;28;20081;-85
2023/05/21 08:55:14;;;;;;;8.38;4.05;;;;;;;;;;5053763;28;22751;-85
2023/05/21 08:57:42;;;;;;;9.85;4.03;;;;;;;;;;5075619;28;20040;-85
2023/05/21 09:00:09;;;;;;;5.95;3.20;;;;;;;;;;5075432;28;20060;-85
2023/05/21 09:02:39;;;;;;;5.75;2.90;;;;;;;;;;5075875;28;20170;-86
2023/05/21 09:05:05;;;;;;;7.18;3.08;;;;;;;;;;5075976;28;20093;-86
2023/05/21 09:07:37;;;;;;;8.05;3.38;;;;;;;;;;5057209;28;20090;-85
2023/05/21 09:10:08;;;;;;;8.13;3.58;;;;;;;;;;5073953;28;20043;-85
2023/05/21 09:12:34;;;;;;;8.80;3.03;;;;;;;;;;5075737;28;20040;-86
2023/05/21 09:15:00;;;;;;;5.40;3.58;;;;;;;;;;5077807;28;20544;-85
2023/05/21 09:17:27;;;;;;;7.05;3.50;;;;;;;;;;5078150;28;20048;-85
2023/05/21 09:20:15;;;;;;;11.13;3.90;;;;;;;;;;5057176;28;20055;-85
2023/05/21 09:22:42;;;;;;;11.55;3.67;;;;;;;;;;5074532;28;20051;-86
2023/05/21 09:25:09;;;;;;;8.05;3.90;;;;;;;;;;5076426;28;20120;-87
2023/05/21 09:27:35;;;;;;;11.43;3.97;;;;;;;;;;5057870;28;20047;-87
2023/05/21 09:30:03;;;;;;;8.93;3.78;;;;;;;;;;5072908;28;20051;-86
2023/05/21 09:32:29;;;;;;;13.32;3.83;;;;;;;;;;5076097;28;20047;-86
2023/05/21 09:34:55;;;;;;;9.13;3.80;;;;;;;;;;5075214;28;20071;-87
2023/05/21 09:37:21;;;;;;;6.55;3.55;;;;;;;;;;5074368;28;20052;-85
2023/05/21 09:39:48;;;;;;;7.85;3.83;;;;;;;;;;5074417;28;20124;-85
2023/05/21 09:42:15;;;;;;;10.38;3.40;;;;;;;;;;5062187;28;20044;-86
2023/05/21 09:44:44;;;;;;;8.00;3.95;;;;;;;;;;5072340;28;20097;-84
2023/05/21 09:47:10;;;;;;;8.57;3.95;;;;;;;;;;5074447;28;20104;-86
2023/05/21 09:49:37;;;;;;;9.65;3.75;;;;;;;;;;5065019;28;20052;-85
2023/05/21 09:52:03;;;;;;;9.50;4.00;;;;;;;;;;5077089;28;20051;-86
2023/05/21 09:54:36;;;;;;;8.98;3.88;;;;;;;;;;5105127;28;20062;-86
2023/05/21 09:57:02;;;;;;;9.80;4.25;;;;;;;;;;5083634;28;20103;-86
2023/05/21 09:59:35;;;;;;;9.18;3.63;;;;;;;;;;5064099;28;20055;-86
2023/05/21 10:02:01;;;;;;;11.60;4.43;;;;;;;;;;5078362;28;20044;-87
2023/05/21 10:04:29;;;;;;;7.25;3.78;;;;;;;;;;5075620;28;20136;-85
2023/05/21 10:06:56;;;;;;;11.55;4.05;;;;;;;;;;5073554;28;20032;-85
2023/05/21 10:09:23;;;;;;;10.70;3.72;;;;;;;;;;5071387;28;20131;-86
2023/05/21 10:11:49;;;;;;;9.30;3.75;;;;;;;;;;5070782;28;20136;-84
2023/05/21 10:14:21;;;;;;;7.57;3.70;;;;;;;;;;5062389;28;20040;-85
2023/05/21 10:16:47;;;;;;;12.52;3.95;;;;;;;;;;5055632;28;20040;-85
2023/05/21 10:19:15;;;;;;;9.95;4.40;;;;;;;;;;5055573;28;20036;-85
2023/05/21 10:21:42;;;;;;;9.57;4.65;;;;;;;;;;5069258;28;20097;-85
2023/05/21 10:24:09;;;;;;;9.27;4.38;;;;;;;;;;5068429;28;20044;-85
2023/05/21 10:26:35;;;;;;;11.45;4.88;;;;;;;;;;5070597;28;20071;-84
2023/05/21 10:29:02;;;;;;;13.10;5.30;;;;;;;;;;5056002;28;20215;-84
2023/05/21 10:31:28;;;;;;;8.13;4.70;;;;;;;;;;5065491;28;20044;-72
2023/05/21 10:33:55;;;;;;;9.43;4.38;;;;;;;;;;5056332;28;20040;-73
2023/05/21 10:36:24;;;;;;;11.57;4.55;;;;;;;;;;5056643;28;20044;-72
2023/05/21 10:38:50;;;;;;;11.60;5.28;;;;;;;;;;5056400;28;20036;-72
2023/05/21 10:41:18;;;;;;;13.75;4.70;;;;;;;;;;5058752;28;20044;-72
2023/05/21 10:43:56;;;;;;;10.32;5.13;;;;;;;;;;5062070;28;20145;-71
2023/05/21 10:46:22;;;;;;;11.38;5.25;;;;;;;;;;5055244;28;20123;-72
2023/05/21 10:48:56;;;;;;;8.52;4.20;;;;;;;;;;5070512;28;21694;-71
2023/05/21 10:51:28;;;;;;;17.42;4.93;;;;;;;;;;5057121;28;20056;-72
2023/05/21 10:54:09;;;;;;;10.93;4.93;;;;;;;;;;5056756;28;20044;-72
2023/05/21 10:56:45;;;;;;;10.02;5.05;;;;;;;;;;5056112;28;20125;-72
2023/05/21 10:59:20;;;;;;;8.82;5.03;;;;;;;;;;5054545;28;20106;-72
2023/05/21 11:01:48;;;;;;;13.07;5.38;;;;;;;;;;5057050;28;20052;-72
2023/05/21 11:04:16;;;;;;;12.55;5.00;;;;;;;;;;5057270;28;20048;-72
2023/05/21 11:06:49;;;;;;;13.88;5.30;;;;;;;;;;5054685;28;20127;-72
2023/05/21 11:09:15;;;;;;;10.63;5.18;;;;;;;;;;5060701;28;20036;-72
2023/05/21 11:11:47;;;;;;;9.02;5.72;;;;;;;;;;5060991;28;20036;-72
2023/05/21 11:14:52;;;;;;;8.30;4.88;;;;;;;;;;5060182;28;20051;-72
2023/05/21 11:17:40;;;;;;;13.95;4.97;;;;;;;;;;5037216;28;20046;-72
2023/05/21 11:20:12;;;;;;;13.10;5.72;;;;;;;;;;5038689;28;20222;-73
2023/05/21 11:22:38;;;;;;;17.20;5.40;;;;;;;;;;5044558;28;20056;-72
2023/05/21 11:25:05;;;;;;;12.45;5.60;;;;;;;;;;5075568;28;20055;-72
2023/05/21 11:27:38;;;;;;;10.63;5.47;;;;;;;;;;5058154;28;20663;-72
2023/05/21 11:30:05;;;;;;;12.73;6.18;;;;;;;;;;5066954;28;20055;-72
2023/05/21 11:32:31;;;;;;;9.93;6.30;;;;;;;;;;5059820;28;20124;-72
2023/05/21 11:35:02;;;;;;;14.05;6.25;;;;;;;;;;5059068;28;20040;-72
2023/05/21 11:37:29;;;;;;;10.63;6.00;;;;;;;;;;5060933;28;20502;-72
2023/05/21 11:39:56;;;;;;;10.60;6.15;;;;;;;;;;5054285;28;20571;-72
2023/05/21 11:42:30;;;;;;;10.68;6.28;;;;;;;;;;5038503;28;20061;-72
2023/05/21 11:44:57;;;;;;;17.00;7.18;;;;;;;;;;5055723;28;20230;-72
2023/05/21 11:47:25;;;;;;;15.55;6.90;;;;;;;;;;5074905;28;20121;-73
2023/05/21 11:49:51;;;;;;;11.82;6.60;;;;;;;;;;5054899;28;20048;-72
2023/05/21 11:52:18;;;;;;;11.20;6.78;;;;;;;;;;5059399;28;20044;-73
2023/05/21 11:54:49;;;;;;;13.38;6.70;;;;;;;;;;5054073;28;20069;-72
2023/05/21 11:57:17;;;;;;;12.48;6.15;;;;;;;;;;5061626;28;20040;-73
2023/05/21 11:59:43;;;;;;;16.67;6.15;;;;;;;;;;5062256;28;20256;-72
2023/05/21 12:02:13;;;;;;;13.40;6.18;;;;;;;;;;5074199;28;20048;-72
2023/05/21 12:04:41;;;;;;;11.73;6.60;;;;;;;;;;5058360;28;20214;-72
2023/05/21 12:07:07;;;;;;;16.02;7.03;;;;;;;;;;5061859;28;20075;-72
2023/05/21 12:09:40;;;;;;;15.63;7.25;;;;;;;;;;5060171;28;20567;-72
2023/05/21 12:12:10;;;;;;;12.30;7.05;;;;;;;;;;5062184;28;20109;-72
2023/05/21 12:14:36;;;;;;;11.82;6.55;;;;;;;;;;5054452;28;20048;-72
2023/05/21 12:17:03;;;;;;;14.10;7.00;;;;;;;;;;5055596;28;20094;-72
2023/05/21 12:19:36;;;;;;;10.50;6.63;;;;;;;;;;5058380;28;20040;-72
2023/05/21 12:22:06;;;;;;;13.02;7.30;;;;;;;;;;5059003;28;20671;-72
2023/05/21 12:24:32;;;;;;;19.70;7.85;;;;;;;;;;5059158;28;20404;-72
2023/05/21 12:27:00;;;;;;;14.68;7.72;;;;;;;;;;5056837;28;20128;-72
2023/05/21 12:29:32;;;;;;;17.70;7.07;;;;;;;;;;5059568;28;20032;-72
2023/05/21 12:32:01;;;;;;;14.27;7.95;;;;;;;;;;5058563;28;20036;-72
2023/05/21 12:34:41;;;;;;;14.38;7.15;;;;;;;;;;5057533;28;20028;-72
2023/05/21 12:37:07;;;;;;;14.80;7.60;;;;;;;;;;5055960;28;20074;-72
2023/05/21 12:39:37;;;;;;;17.85;7.68;;;;;;;;;;5059055;28;20039;-72
2023/05/21 12:42:04;;;;;;;14.57;7.45;;;;;;;;;;5059602;28;20044;-72
2023/05/21 12:44:30;;;;;;;17.02;7.50;;;;;;;;;;5058448;28;20044;-71
2023/05/21 12:46:58;;;;;;;12.38;7.68;;;;;;;;;;5058526;28;20046;-72
2023/05/21 12:49:31;;;;;;;13.95;8.40;;;;;;;;;;5056243;28;20032;-72
2023/05/21 12:51:57;;;;;;;15.57;8.35;;;;;;;;;;5054942;28;20587;-71
2023/05/21 12:54:30;;;;;;;13.32;8.98;;;;;;;;;;5056428;28;20098;-71
2023/05/21 12:56:56;;;;;;;16.80;9.13;;;;;;;;;;5052678;28;20036;-72
2023/05/21 12:59:22;;;;;;;13.32;8.18;;;;;;;;;;5071788;28;20393;-72
2023/05/21 13:01:48;;;;;;;16.63;8.30;;;;;;;;;;5057610;28;20048;-72
2023/05/21 13:04:14;;;;;;;17.52;9.63;;;;;;;;;;5052224;28;20048;-72
2023/05/21 13:06:43;;;;;;;15.38;9.52;;;;;;;;;;5061401;28;20112;-72
2023/05/21 13:09:09;;;;;;;13.38;8.63;;;;;;;;;;5059313;28;20199;-73
2023/05/21 13:11:36;;;;;;;13.07;7.97;;;;;;;;;;5060063;28;20484;-72
2023/05/21 13:14:02;;;;;;;14.75;8.95;;;;;;;;;;5062877;28;20057;-73
2023/05/21 13:16:28;;;;;;;18.58;9.02;;;;;;;;;;5065141;28;20076;-72
2023/05/21 13:18:54;;;;;;;23.92;9.35;;;;;;;;;;5062538;28;20052;-72
2023/05/21 13:21:20;;;;;;;18.05;9.40;;;;;;;;;;5059790;28;20055;-71
2023/05/21 13:23:46;;;;;;;13.93;9.23;;;;;;;;;;5070238;28;20116;-71
2023/05/21 13:26:12;;;;;;;17.85;8.82;;;;;;;;;;5060399;28;20041;-71
2023/05/21 13:28:38;;;;;;;19.23;8.98;;;;;;;;;;5061859;28;20619;-72
2023/05/21 13:31:05;;;;;;;17.00;10.02;;;;;;;;;;5060434;28;20089;-72
2023/05/21 13:33:31;;;;;;;19.15;8.70;;;;;;;;;;5059813;28;21779;-71
2023/05/21 13:35:57;;;;;;;13.85;8.75;;;;;;;;;;5060581;28;20043;-72
2023/05/21 13:38:23;;;;;;;16.83;9.73;;;;;;;;;;5059736;28;20051;-72
2023/05/21 13:40:49;;;;;;;16.63;9.90;;;;;;;;;;5054899;28;20093;-72
2023/05/21 13:43:15;;;;;;;14.68;10.00;;;;;;;;;;5044797;28;20056;-72
2023/05/21 13:45:42;;;;;;;14.50;9.43;;;;;;;;;;5059461;28;20040;-71
2023/05/21 13:48:08;;;;;;;15.40;9.32;;;;;;;;;;5061733;28;20085;-72
2023/05/21 13:50:34;;;;;;;21.30;10.57;;;;;;;;;;5041983;28;20044;-71
2023/05/21 13:53:00;;;;;;;16.08;11.07;;;;;;;;;;5074703;28;20063;-71
2023/05/21 13:55:26;;;;;;;16.30;10.35;;;;;;;;;;5059085;28;20055;-71
2023/05/21 13:57:53;;;;;;;19.67;10.13;;;;;;;;;;5058937;28;20076;-71
2023/05/21 14:00:19;;;;;;;15.70;10.88;;;;;;;;;;5057773;28;20048;-71
2023/05/21 14:02:45;;;;;;;17.48;10.70;;;;;;;;;;5059386;28;20044;-72
2023/05/21 14:05:11;;;;;;;19.05;10.82;;;;;;;;;;5073272;28;20132;-72
2023/05/21 14:07:38;;;;;;;15.18;10.80;;;;;;;;;;5053538;28;20134;-72
2023/05/21 14:10:05;;;;;;;20.38;11.43;;;;;;;;;;5055499;28;20408;-71
2023/05/21 14:12:33;;;;;;;20.08;11.95;;;;;;;;;;5053260;28;20174;-71
2023/05/21 14:14:59;;;;;;;21.38;11.82;;;;;;;;;;5055078;28;20043;-71
2023/05/21 14:17:25;;;;;;;20.08;13.10;;;;;;;;;;5052005;28;20135;-73
2023/05/21 14:19:52;;;;;;;18.70;14.13;;;;;;;;;;5057928;28;20049;-71
2023/05/21 14:22:18;;;;;;;18.10;12.70;;;;;;;;;;5057224;28;20062;-72
2023/05/21 14:24:44;;;;;;;20.48;13.55;;;;;;;;;;5060758;28;20177;-72
2023/05/21 14:27:11;;;;;;;21.25;14.80;;;;;;;;;;5058593;28;20044;-72
2023/05/21 14:29:37;;;;;;;20.63;15.20;;;;;;;;;;5053938;28;20066;-72
2023/05/21 14:32:03;;;;;;;20.90;14.40;;;;;;;;;;5060223;28;20165;-71
2023/05/21 14:34:29;;;;;;;19.33;14.48;;;;;;;;;;5071449;28;20055;-71
2023/05/21 14:36:55;;;;;;;20.17;14.38;;;;;;;;;;5059114;28;20819;-71
2023/05/21 14:39:21;;;;;;;17.90;14.18;;;;;;;;;;5053687;28;20040;-72